DAAT/TMR METAR and TAF weather

Enter ICAO airport designator
Station Type Date Time Source
DAAT METAR 2019/12/11 15:00 UTC NOAA

DAAT 111500Z 26003KT CAVOK 25/// Q1020


Station Type Date Time Source
DAAT Decoded METAR 2019/12/11 15:00 UTC NOAA

Tamanrasset / Aguenna, Algeria (DAAT) 22-49N 005-28E
Dec 11, 2019 - 10:00 AM EST / 2019.12.11 1500 UTC
Wind: from the W (260 degrees) at 3 MPH (3 KT):0
Visibility: greater than 7 mile(s):0
Temperature: 77 F (25 C)
Pressure (altimeter): 30.12 in. Hg (1020 hPa)
ob: DAAT 111500Z 26003KT CAVOK 25/// Q1020
cycle: 15

Station Type Date Time Source
DAAT TAF 2019/12/11 12:33 UTC NOAA

TAF DAAT 111100Z 1112/1212 04010KT CAVOK
BECMG 1208/1211 30010KT

Example: see airport list